sensor_id;sensor_type;location;lat;lon;timestamp;P1;durP1;ratioP1;P2;durP2;ratioP2
25936;SDS011;13733;51.178;4.450;2024-02-21T00:00:20;22.90;;;7.95;;
25936;SDS011;13733;51.178;4.450;2024-02-21T00:02:46;25.30;;;7.70;;
25936;SDS011;13733;51.178;4.450;2024-02-21T00:05:12;28.77;;;8.68;;
25936;SDS011;13733;51.178;4.450;2024-02-21T00:07:38;24.77;;;8.40;;
25936;SDS011;13733;51.178;4.450;2024-02-21T00:10:03;23.42;;;8.20;;
25936;SDS011;13733;51.178;4.450;2024-02-21T00:12:29;22.00;;;8.80;;
25936;SDS011;13733;51.178;4.450;2024-02-21T00:14:55;22.60;;;8.88;;
25936;SDS011;13733;51.178;4.450;2024-02-21T00:17:21;30.05;;;8.70;;
25936;SDS011;13733;51.178;4.450;2024-02-21T00:19:47;30.23;;;8.07;;
25936;SDS011;13733;51.178;4.450;2024-02-21T00:22:13;19.02;;;7.78;;
25936;SDS011;13733;51.178;4.450;2024-02-21T00:24:39;26.73;;;8.77;;
25936;SDS011;13733;51.178;4.450;2024-02-21T00:27:10;24.52;;;7.90;;
25936;SDS011;13733;51.178;4.450;2024-02-21T00:29:37;18.42;;;7.35;;
25936;SDS011;13733;51.178;4.450;2024-02-21T00:32:03;20.98;;;7.18;;
25936;SDS011;13733;51.178;4.450;2024-02-21T00:34:29;26.20;;;7.97;;
25936;SDS011;13733;51.178;4.450;2024-02-21T00:36:54;24.90;;;7.97;;
25936;SDS011;13733;51.178;4.450;2024-02-21T00:39:20;24.52;;;8.50;;
25936;SDS011;13733;51.178;4.450;2024-02-21T00:41:47;28.15;;;7.82;;
25936;SDS011;13733;51.178;4.450;2024-02-21T00:44:12;24.85;;;7.45;;
25936;SDS011;13733;51.178;4.450;2024-02-21T00:46:38;20.13;;;7.80;;
25936;SDS011;13733;51.178;4.450;2024-02-21T00:49:04;24.50;;;7.82;;
25936;SDS011;13733;51.178;4.450;2024-02-21T00:51:30;20.65;;;7.18;;
25936;SDS011;13733;51.178;4.450;2024-02-21T00:53:56;24.52;;;7.57;;
25936;SDS011;13733;51.178;4.450;2024-02-21T00:56:22;21.95;;;6.78;;
25936;SDS011;13733;51.178;4.450;2024-02-21T00:58:47;18.48;;;7.53;;
25936;SDS011;13733;51.178;4.450;2024-02-21T01:01:13;19.20;;;7.10;;
25936;SDS011;13733;51.178;4.450;2024-02-21T01:03:47;24.90;;;7.70;;
25936;SDS011;13733;51.178;4.450;2024-02-21T01:06:13;22.33;;;7.57;;
25936;SDS011;13733;51.178;4.450;2024-02-21T01:08:39;20.38;;;7.38;;
25936;SDS011;13733;51.178;4.450;2024-02-21T01:11:05;20.85;;;7.93;;
25936;SDS011;13733;51.178;4.450;2024-02-21T01:13:30;21.38;;;7.97;;
25936;SDS011;13733;51.178;4.450;2024-02-21T01:15:56;25.05;;;7.47;;
25936;SDS011;13733;51.178;4.450;2024-02-21T01:18:23;18.10;;;7.90;;
25936;SDS011;13733;51.178;4.450;2024-02-21T01:20:48;19.52;;;8.20;;
25936;SDS011;13733;51.178;4.450;2024-02-21T01:23:14;21.67;;;8.60;;
25936;SDS011;13733;51.178;4.450;2024-02-21T01:25:40;24.30;;;8.18;;
25936;SDS011;13733;51.178;4.450;2024-02-21T01:28:06;17.40;;;7.05;;
25936;SDS011;13733;51.178;4.450;2024-02-21T01:30:31;20.02;;;7.43;;
25936;SDS011;13733;51.178;4.450;2024-02-21T01:32:58;23.08;;;8.05;;
25936;SDS011;13733;51.178;4.450;2024-02-21T01:35:24;19.58;;;7.80;;
25936;SDS011;13733;51.178;4.450;2024-02-21T01:37:50;22.20;;;8.63;;
25936;SDS011;13733;51.178;4.450;2024-02-21T01:40:17;23.15;;;8.57;;
25936;SDS011;13733;51.178;4.450;2024-02-21T01:42:43;18.35;;;8.10;;
25936;SDS011;13733;51.178;4.450;2024-02-21T01:45:08;25.02;;;8.82;;
25936;SDS011;13733;51.178;4.450;2024-02-21T01:47:35;23.60;;;8.75;;
25936;SDS011;13733;51.178;4.450;2024-02-21T01:50:02;23.40;;;9.55;;
25936;SDS011;13733;51.178;4.450;2024-02-21T01:52:29;24.05;;;9.07;;
25936;SDS011;13733;51.178;4.450;2024-02-21T01:54:56;17.17;;;8.32;;
25936;SDS011;13733;51.178;4.450;2024-02-21T01:57:23;22.35;;;8.13;;
25936;SDS011;13733;51.178;4.450;2024-02-21T01:59:49;18.92;;;8.52;;
25936;SDS011;13733;51.178;4.450;2024-02-21T02:02:15;25.15;;;9.07;;
25936;SDS011;13733;51.178;4.450;2024-02-21T02:04:42;21.88;;;8.25;;
25936;SDS011;13733;51.178;4.450;2024-02-21T02:07:10;32.40;;;9.25;;
25936;SDS011;13733;51.178;4.450;2024-02-21T02:09:36;23.25;;;8.40;;
25936;SDS011;13733;51.178;4.450;2024-02-21T02:12:02;22.30;;;8.52;;
25936;SDS011;13733;51.178;4.450;2024-02-21T02:14:28;18.42;;;8.88;;
25936;SDS011;13733;51.178;4.450;2024-02-21T02:16:53;23.50;;;9.13;;
25936;SDS011;13733;51.178;4.450;2024-02-21T02:19:19;27.05;;;9.77;;
25936;SDS011;13733;51.178;4.450;2024-02-21T02:22:04;25.13;;;8.98;;
25936;SDS011;13733;51.178;4.450;2024-02-21T02:24:42;24.70;;;9.73;;
25936;SDS011;13733;51.178;4.450;2024-02-21T02:27:08;24.15;;;9.32;;
25936;SDS011;13733;51.178;4.450;2024-02-21T02:29:34;27.63;;;9.98;;
25936;SDS011;13733;51.178;4.450;2024-02-21T02:32:00;24.63;;;8.82;;
25936;SDS011;13733;51.178;4.450;2024-02-21T02:34:26;24.05;;;9.60;;
25936;SDS011;13733;51.178;4.450;2024-02-21T02:36:52;22.63;;;9.55;;
25936;SDS011;13733;51.178;4.450;2024-02-21T02:39:17;25.73;;;9.88;;
25936;SDS011;13733;51.178;4.450;2024-02-21T02:41:43;29.83;;;9.45;;
25936;SDS011;13733;51.178;4.450;2024-02-21T02:44:09;36.00;;;11.38;;
25936;SDS011;13733;51.178;4.450;2024-02-21T02:46:35;27.73;;;11.10;;
25936;SDS011;13733;51.178;4.450;2024-02-21T02:49:00;32.63;;;11.10;;
25936;SDS011;13733;51.178;4.450;2024-02-21T02:51:26;23.90;;;11.15;;
25936;SDS011;13733;51.178;4.450;2024-02-21T02:53:52;30.15;;;11.32;;
25936;SDS011;13733;51.178;4.450;2024-02-21T02:56:17;28.30;;;10.50;;
25936;SDS011;13733;51.178;4.450;2024-02-21T02:58:43;26.65;;;11.02;;
25936;SDS011;13733;51.178;4.450;2024-02-21T03:01:09;28.67;;;11.43;;
25936;SDS011;13733;51.178;4.450;2024-02-21T03:03:35;29.63;;;10.60;;
25936;SDS011;13733;51.178;4.450;2024-02-21T03:06:01;23.67;;;10.52;;
25936;SDS011;13733;51.178;4.450;2024-02-21T03:08:26;30.55;;;10.90;;
25936;SDS011;13733;51.178;4.450;2024-02-21T03:10:52;26.80;;;10.68;;
25936;SDS011;13733;51.178;4.450;2024-02-21T03:13:18;29.92;;;9.90;;
25936;SDS011;13733;51.178;4.450;2024-02-21T03:15:44;26.92;;;10.95;;
25936;SDS011;13733;51.178;4.450;2024-02-21T03:18:09;28.13;;;11.30;;
25936;SDS011;13733;51.178;4.450;2024-02-21T03:20:35;22.30;;;10.32;;
25936;SDS011;13733;51.178;4.450;2024-02-21T03:23:01;29.20;;;10.68;;
25936;SDS011;13733;51.178;4.450;2024-02-21T03:25:27;25.48;;;10.73;;
25936;SDS011;13733;51.178;4.450;2024-02-21T03:27:52;25.52;;;10.57;;
25936;SDS011;13733;51.178;4.450;2024-02-21T03:30:18;32.80;;;11.25;;
25936;SDS011;13733;51.178;4.450;2024-02-21T03:32:44;30.33;;;10.63;;
25936;SDS011;13733;51.178;4.450;2024-02-21T03:35:10;24.05;;;10.43;;
25936;SDS011;13733;51.178;4.450;2024-02-21T03:37:35;23.80;;;8.77;;
25936;SDS011;13733;51.178;4.450;2024-02-21T03:40:01;22.35;;;9.65;;
25936;SDS011;13733;51.178;4.450;2024-02-21T03:42:27;23.48;;;9.63;;
25936;SDS011;13733;51.178;4.450;2024-02-21T03:44:55;24.08;;;9.45;;
25936;SDS011;13733;51.178;4.450;2024-02-21T03:47:21;21.02;;;9.63;;
25936;SDS011;13733;51.178;4.450;2024-02-21T03:49:47;26.23;;;9.90;;
25936;SDS011;13733;51.178;4.450;2024-02-21T03:52:13;20.98;;;9.27;;
25936;SDS011;13733;51.178;4.450;2024-02-21T03:54:38;24.17;;;8.77;;
25936;SDS011;13733;51.178;4.450;2024-02-21T03:57:04;24.08;;;9.38;;
25936;SDS011;13733;51.178;4.450;2024-02-21T03:59:30;23.58;;;10.18;;
25936;SDS011;13733;51.178;4.450;2024-02-21T04:01:56;23.98;;;10.68;;
25936;SDS011;13733;51.178;4.450;2024-02-21T04:04:22;26.13;;;9.70;;
25936;SDS011;13733;51.178;4.450;2024-02-21T04:06:48;24.65;;;10.07;;
25936;SDS011;13733;51.178;4.450;2024-02-21T04:09:15;20.95;;;9.02;;
25936;SDS011;13733;51.178;4.450;2024-02-21T04:11:41;25.25;;;9.90;;
25936;SDS011;13733;51.178;4.450;2024-02-21T04:14:06;20.88;;;9.82;;
25936;SDS011;13733;51.178;4.450;2024-02-21T04:16:32;22.67;;;8.75;;
25936;SDS011;13733;51.178;4.450;2024-02-21T04:18:58;22.73;;;9.48;;
25936;SDS011;13733;51.178;4.450;2024-02-21T04:21:24;20.23;;;9.02;;
25936;SDS011;13733;51.178;4.450;2024-02-21T04:23:50;19.63;;;8.40;;
25936;SDS011;13733;51.178;4.450;2024-02-21T04:26:15;19.08;;;9.18;;
25936;SDS011;13733;51.178;4.450;2024-02-21T04:28:42;21.55;;;9.18;;
25936;SDS011;13733;51.178;4.450;2024-02-21T04:31:09;21.50;;;8.63;;
25936;SDS011;13733;51.178;4.450;2024-02-21T04:33:35;18.60;;;8.25;;
25936;SDS011;13733;51.178;4.450;2024-02-21T04:36:01;19.17;;;8.48;;
25936;SDS011;13733;51.178;4.450;2024-02-21T04:38:27;18.63;;;9.18;;
25936;SDS011;13733;51.178;4.450;2024-02-21T04:40:54;22.38;;;8.63;;
25936;SDS011;13733;51.178;4.450;2024-02-21T04:43:23;22.02;;;9.40;;
25936;SDS011;13733;51.178;4.450;2024-02-21T04:45:50;20.13;;;8.57;;
25936;SDS011;13733;51.178;4.450;2024-02-21T04:48:16;18.92;;;8.55;;
25936;SDS011;13733;51.178;4.450;2024-02-21T04:50:41;19.45;;;8.93;;
25936;SDS011;13733;51.178;4.450;2024-02-21T04:53:07;19.88;;;9.48;;
25936;SDS011;13733;51.178;4.450;2024-02-21T04:55:33;20.70;;;9.90;;
25936;SDS011;13733;51.178;4.450;2024-02-21T04:57:59;23.02;;;9.57;;
25936;SDS011;13733;51.178;4.450;2024-02-21T05:00:27;25.75;;;10.35;;
25936;SDS011;13733;51.178;4.450;2024-02-21T05:02:53;25.55;;;9.95;;
25936;SDS011;13733;51.178;4.450;2024-02-21T05:05:19;29.15;;;10.50;;
25936;SDS011;13733;51.178;4.450;2024-02-21T05:07:45;23.67;;;10.25;;
25936;SDS011;13733;51.178;4.450;2024-02-21T05:10:10;21.30;;;10.50;;
25936;SDS011;13733;51.178;4.450;2024-02-21T05:12:36;20.27;;;10.23;;
25936;SDS011;13733;51.178;4.450;2024-02-21T05:15:02;22.65;;;10.15;;
25936;SDS011;13733;51.178;4.450;2024-02-21T05:17:28;23.02;;;11.35;;
25936;SDS011;13733;51.178;4.450;2024-02-21T05:19:54;25.58;;;10.80;;
25936;SDS011;13733;51.178;4.450;2024-02-21T05:22:20;25.40;;;10.85;;
25936;SDS011;13733;51.178;4.450;2024-02-21T05:24:46;21.00;;;10.55;;
25936;SDS011;13733;51.178;4.450;2024-02-21T05:27:11;23.52;;;11.27;;
25936;SDS011;13733;51.178;4.450;2024-02-21T05:29:37;22.05;;;10.93;;
25936;SDS011;13733;51.178;4.450;2024-02-21T05:32:03;32.92;;;11.60;;
25936;SDS011;13733;51.178;4.450;2024-02-21T05:34:29;27.27;;;10.85;;
25936;SDS011;13733;51.178;4.450;2024-02-21T05:36:55;24.90;;;11.35;;
25936;SDS011;13733;51.178;4.450;2024-02-21T05:39:20;24.08;;;11.50;;
25936;SDS011;13733;51.178;4.450;2024-02-21T05:41:48;27.65;;;12.00;;
25936;SDS011;13733;51.178;4.450;2024-02-21T05:44:14;25.27;;;11.32;;
25936;SDS011;13733;51.178;4.450;2024-02-21T05:46:40;30.13;;;11.60;;
25936;SDS011;13733;51.178;4.450;2024-02-21T05:49:06;26.65;;;11.63;;
25936;SDS011;13733;51.178;4.450;2024-02-21T05:51:32;22.23;;;11.75;;
25936;SDS011;13733;51.178;4.450;2024-02-21T05:53:58;23.98;;;10.52;;
25936;SDS011;13733;51.178;4.450;2024-02-21T05:56:24;19.15;;;10.68;;
25936;SDS011;13733;51.178;4.450;2024-02-21T05:58:50;27.25;;;11.77;;
25936;SDS011;13733;51.178;4.450;2024-02-21T06:01:16;30.25;;;11.70;;
25936;SDS011;13733;51.178;4.450;2024-02-21T06:03:42;27.00;;;11.63;;
25936;SDS011;13733;51.178;4.450;2024-02-21T06:06:09;32.63;;;12.93;;
25936;SDS011;13733;51.178;4.450;2024-02-21T06:08:34;27.17;;;12.70;;
25936;SDS011;13733;51.178;4.450;2024-02-21T06:11:00;29.00;;;12.10;;
25936;SDS011;13733;51.178;4.450;2024-02-21T06:13:26;28.95;;;11.55;;
25936;SDS011;13733;51.178;4.450;2024-02-21T06:15:52;26.27;;;11.93;;
25936;SDS011;13733;51.178;4.450;2024-02-21T06:18:18;25.02;;;11.07;;
25936;SDS011;13733;51.178;4.450;2024-02-21T06:20:44;26.20;;;11.70;;
25936;SDS011;13733;51.178;4.450;2024-02-21T06:23:11;30.23;;;11.73;;
25936;SDS011;13733;51.178;4.450;2024-02-21T06:25:38;20.80;;;11.00;;
25936;SDS011;13733;51.178;4.450;2024-02-21T06:28:05;23.20;;;11.02;;
25936;SDS011;13733;51.178;4.450;2024-02-21T06:30:31;23.77;;;11.55;;
25936;SDS011;13733;51.178;4.450;2024-02-21T06:32:57;24.00;;;11.70;;
25936;SDS011;13733;51.178;4.450;2024-02-21T06:35:24;24.30;;;11.25;;
25936;SDS011;13733;51.178;4.450;2024-02-21T06:37:50;25.90;;;11.32;;
25936;SDS011;13733;51.178;4.450;2024-02-21T06:40:17;21.13;;;10.35;;
25936;SDS011;13733;51.178;4.450;2024-02-21T06:42:43;26.75;;;10.90;;
25936;SDS011;13733;51.178;4.450;2024-02-21T06:45:09;21.38;;;11.52;;
25936;SDS011;13733;51.178;4.450;2024-02-21T06:47:35;23.60;;;10.32;;
25936;SDS011;13733;51.178;4.450;2024-02-21T06:50:00;21.85;;;10.07;;
25936;SDS011;13733;51.178;4.450;2024-02-21T06:52:26;19.10;;;10.02;;
25936;SDS011;13733;51.178;4.450;2024-02-21T06:54:52;24.52;;;9.95;;
25936;SDS011;13733;51.178;4.450;2024-02-21T06:57:18;19.48;;;10.25;;
25936;SDS011;13733;51.178;4.450;2024-02-21T06:59:43;15.88;;;10.15;;
25936;SDS011;13733;51.178;4.450;2024-02-21T07:02:09;19.73;;;10.07;;
25936;SDS011;13733;51.178;4.450;2024-02-21T07:04:35;17.33;;;10.07;;
25936;SDS011;13733;51.178;4.450;2024-02-21T07:07:02;21.33;;;9.55;;
25936;SDS011;13733;51.178;4.450;2024-02-21T07:09:28;22.23;;;10.40;;
25936;SDS011;13733;51.178;4.450;2024-02-21T07:11:56;18.50;;;10.10;;
25936;SDS011;13733;51.178;4.450;2024-02-21T07:14:25;20.23;;;9.93;;
25936;SDS011;13733;51.178;4.450;2024-02-21T07:16:53;18.67;;;9.73;;
25936;SDS011;13733;51.178;4.450;2024-02-21T07:19:19;24.23;;;10.93;;
25936;SDS011;13733;51.178;4.450;2024-02-21T07:21:45;18.60;;;9.85;;
25936;SDS011;13733;51.178;4.450;2024-02-21T07:24:11;20.70;;;10.07;;
25936;SDS011;13733;51.178;4.450;2024-02-21T07:26:40;24.77;;;10.88;;
25936;SDS011;13733;51.178;4.450;2024-02-21T07:29:08;19.80;;;9.85;;
25936;SDS011;13733;51.178;4.450;2024-02-21T07:31:43;18.88;;;9.75;;
25936;SDS011;13733;51.178;4.450;2024-02-21T07:34:09;16.90;;;9.50;;
25936;SDS011;13733;51.178;4.450;2024-02-21T07:36:35;19.75;;;10.48;;
25936;SDS011;13733;51.178;4.450;2024-02-21T07:39:03;16.52;;;9.05;;
25936;SDS011;13733;51.178;4.450;2024-02-21T07:41:30;16.88;;;9.80;;
25936;SDS011;13733;51.178;4.450;2024-02-21T07:43:56;14.02;;;9.18;;
25936;SDS011;13733;51.178;4.450;2024-02-21T07:46:22;16.23;;;9.23;;
25936;SDS011;13733;51.178;4.450;2024-02-21T07:48:47;13.02;;;8.73;;
25936;SDS011;13733;51.178;4.450;2024-02-21T07:51:13;17.55;;;9.50;;
25936;SDS011;13733;51.178;4.450;2024-02-21T07:53:42;16.35;;;9.40;;
25936;SDS011;13733;51.178;4.450;2024-02-21T07:56:12;15.02;;;8.63;;
25936;SDS011;13733;51.178;4.450;2024-02-21T07:58:39;14.93;;;9.15;;
25936;SDS011;13733;51.178;4.450;2024-02-21T08:01:05;15.30;;;9.38;;
25936;SDS011;13733;51.178;4.450;2024-02-21T08:03:31;15.50;;;9.27;;
25936;SDS011;13733;51.178;4.450;2024-02-21T08:05:57;15.98;;;9.35;;
25936;SDS011;13733;51.178;4.450;2024-02-21T08:08:22;16.38;;;9.10;;
25936;SDS011;13733;51.178;4.450;2024-02-21T08:10:50;14.15;;;9.40;;
25936;SDS011;13733;51.178;4.450;2024-02-21T08:13:16;14.32;;;9.55;;
25936;SDS011;13733;51.178;4.450;2024-02-21T08:15:41;18.30;;;9.13;;
25936;SDS011;13733;51.178;4.450;2024-02-21T08:18:08;16.83;;;10.25;;
25936;SDS011;13733;51.178;4.450;2024-02-21T08:20:36;14.98;;;9.68;;
25936;SDS011;13733;51.178;4.450;2024-02-21T08:23:02;14.40;;;10.02;;
25936;SDS011;13733;51.178;4.450;2024-02-21T08:25:28;19.98;;;11.32;;
25936;SDS011;13733;51.178;4.450;2024-02-21T08:27:56;18.67;;;11.57;;
25936;SDS011;13733;51.178;4.450;2024-02-21T08:30:23;16.30;;;11.75;;
25936;SDS011;13733;51.178;4.450;2024-02-21T08:32:49;17.50;;;11.45;;
25936;SDS011;13733;51.178;4.450;2024-02-21T08:35:15;18.00;;;12.50;;
25936;SDS011;13733;51.178;4.450;2024-02-21T08:37:43;17.65;;;12.82;;
25936;SDS011;13733;51.178;4.450;2024-02-21T08:40:12;20.50;;;13.93;;
25936;SDS011;13733;51.178;4.450;2024-02-21T08:42:41;20.33;;;14.05;;
25936;SDS011;13733;51.178;4.450;2024-02-21T08:45:07;31.27;;;14.98;;
25936;SDS011;13733;51.178;4.450;2024-02-21T08:47:33;20.92;;;14.55;;
25936;SDS011;13733;51.178;4.450;2024-02-21T08:50:01;22.50;;;14.18;;
25936;SDS011;13733;51.178;4.450;2024-02-21T08:52:27;20.60;;;14.65;;
25936;SDS011;13733;51.178;4.450;2024-02-21T08:54:53;21.13;;;13.68;;
25936;SDS011;13733;51.178;4.450;2024-02-21T08:57:19;20.38;;;13.65;;
25936;SDS011;13733;51.178;4.450;2024-02-21T08:59:45;19.58;;;12.90;;
25936;SDS011;13733;51.178;4.450;2024-02-21T09:02:12;19.50;;;12.50;;
25936;SDS011;13733;51.178;4.450;2024-02-21T09:04:38;21.60;;;11.65;;
25936;SDS011;13733;51.178;4.450;2024-02-21T09:07:04;16.77;;;11.02;;
25936;SDS011;13733;51.178;4.450;2024-02-21T09:09:30;18.63;;;10.55;;
25936;SDS011;13733;51.178;4.450;2024-02-21T09:11:58;15.07;;;10.07;;
25936;SDS011;13733;51.178;4.450;2024-02-21T09:14:31;17.00;;;10.55;;
25936;SDS011;13733;51.178;4.450;2024-02-21T09:16:57;16.02;;;9.32;;
25936;SDS011;13733;51.178;4.450;2024-02-21T09:19:23;16.88;;;9.20;;
25936;SDS011;13733;51.178;4.450;2024-02-21T09:21:48;14.32;;;8.20;;
25936;SDS011;13733;51.178;4.450;2024-02-21T09:24:14;17.80;;;7.75;;
25936;SDS011;13733;51.178;4.450;2024-02-21T09:26:40;16.92;;;7.32;;
25936;SDS011;13733;51.178;4.450;2024-02-21T09:29:06;13.63;;;6.70;;
25936;SDS011;13733;51.178;4.450;2024-02-21T09:31:31;13.57;;;6.40;;
25936;SDS011;13733;51.178;4.450;2024-02-21T09:33:57;12.40;;;6.45;;
25936;SDS011;13733;51.178;4.450;2024-02-21T09:36:23;13.65;;;6.22;;
25936;SDS011;13733;51.178;4.450;2024-02-21T09:38:49;15.05;;;5.88;;
25936;SDS011;13733;51.178;4.450;2024-02-21T09:41:18;18.45;;;6.93;;
25936;SDS011;13733;51.178;4.450;2024-02-21T09:43:51;11.15;;;5.95;;
25936;SDS011;13733;51.178;4.450;2024-02-21T09:46:18;13.25;;;6.15;;
25936;SDS011;13733;51.178;4.450;2024-02-21T09:49:12;10.43;;;6.20;;
25936;SDS011;13733;51.178;4.450;2024-02-21T09:52:11;15.15;;;6.28;;
25936;SDS011;13733;51.178;4.450;2024-02-21T09:54:40;12.57;;;5.20;;
25936;SDS011;13733;51.178;4.450;2024-02-21T09:57:09;8.97;;;4.60;;
25936;SDS011;13733;51.178;4.450;2024-02-21T09:59:36;11.35;;;5.28;;
25936;SDS011;13733;51.178;4.450;2024-02-21T10:02:03;9.15;;;4.70;;
25936;SDS011;13733;51.178;4.450;2024-02-21T10:04:30;9.80;;;4.90;;
25936;SDS011;13733;51.178;4.450;2024-02-21T10:06:57;11.65;;;4.78;;
25936;SDS011;13733;51.178;4.450;2024-02-21T10:09:26;11.25;;;4.75;;
25936;SDS011;13733;51.178;4.450;2024-02-21T10:11:53;9.55;;;4.57;;
25936;SDS011;13733;51.178;4.450;2024-02-21T10:14:20;12.95;;;4.78;;
25936;SDS011;13733;51.178;4.450;2024-02-21T10:16:56;10.50;;;4.50;;
25936;SDS011;13733;51.178;4.450;2024-02-21T10:19:25;10.55;;;4.10;;
25936;SDS011;13733;51.178;4.450;2024-02-21T10:22:24;7.78;;;4.28;;
25936;SDS011;13733;51.178;4.450;2024-02-21T10:24:43;9.88;;;4.57;;
25936;SDS011;13733;51.178;4.450;2024-02-21T10:27:09;9.88;;;4.13;;
25936;SDS011;13733;51.178;4.450;2024-02-21T10:29:38;9.23;;;4.60;;
25936;SDS011;13733;51.178;4.450;2024-02-21T10:32:11;9.65;;;4.68;;
25936;SDS011;13733;51.178;4.450;2024-02-21T10:34:38;10.57;;;4.50;;
25936;SDS011;13733;51.178;4.450;2024-02-21T10:37:06;9.05;;;4.32;;
25936;SDS011;13733;51.178;4.450;2024-02-21T10:39:33;8.65;;;4.88;;
25936;SDS011;13733;51.178;4.450;2024-02-21T10:42:03;9.43;;;4.50;;
25936;SDS011;13733;51.178;4.450;2024-02-21T10:44:30;12.73;;;4.32;;
25936;SDS011;13733;51.178;4.450;2024-02-21T10:46:57;10.43;;;4.55;;
25936;SDS011;13733;51.178;4.450;2024-02-21T10:49:24;13.93;;;4.60;;
25936;SDS011;13733;51.178;4.450;2024-02-21T10:51:54;10.57;;;4.70;;
25936;SDS011;13733;51.178;4.450;2024-02-21T10:57:15;8.95;;;4.75;;
25936;SDS011;13733;51.178;4.450;2024-02-21T10:59:44;13.00;;;5.03;;
25936;SDS011;13733;51.178;4.450;2024-02-21T11:02:12;14.70;;;4.88;;
25936;SDS011;13733;51.178;4.450;2024-02-21T11:04:38;14.15;;;4.88;;
25936;SDS011;13733;51.178;4.450;2024-02-21T11:07:05;13.65;;;5.20;;
25936;SDS011;13733;51.178;4.450;2024-02-21T11:09:32;10.55;;;4.60;;
25936;SDS011;13733;51.178;4.450;2024-02-21T11:11:58;9.38;;;4.85;;
25936;SDS011;13733;51.178;4.450;2024-02-21T11:14:29;9.80;;;4.88;;
25936;SDS011;13733;51.178;4.450;2024-02-21T11:17:01;12.02;;;4.88;;
25936;SDS011;13733;51.178;4.450;2024-02-21T11:19:28;14.77;;;5.47;;
25936;SDS011;13733;51.178;4.450;2024-02-21T11:21:56;11.77;;;6.03;;
25936;SDS011;13733;51.178;4.450;2024-02-21T11:24:29;11.13;;;5.80;;
25936;SDS011;13733;51.178;4.450;2024-02-21T11:29:47;15.93;;;6.25;;
25936;SDS011;13733;51.178;4.450;2024-02-21T11:34:57;10.88;;;6.00;;
25936;SDS011;13733;51.178;4.450;2024-02-21T11:37:30;12.75;;;5.40;;
25936;SDS011;13733;51.178;4.450;2024-02-21T11:39:59;14.13;;;5.72;;
25936;SDS011;13733;51.178;4.450;2024-02-21T11:42:26;11.23;;;5.18;;
25936;SDS011;13733;51.178;4.450;2024-02-21T11:44:53;15.38;;;5.55;;
25936;SDS011;13733;51.178;4.450;2024-02-21T11:47:18;14.73;;;5.25;;
25936;SDS011;13733;51.178;4.450;2024-02-21T11:49:45;15.07;;;5.63;;
25936;SDS011;13733;51.178;4.450;2024-02-21T11:52:12;11.02;;;4.78;;
25936;SDS011;13733;51.178;4.450;2024-02-21T11:54:40;14.20;;;6.03;;
25936;SDS011;13733;51.178;4.450;2024-02-21T11:57:06;13.07;;;5.20;;
25936;SDS011;13733;51.178;4.450;2024-02-21T11:59:32;12.98;;;5.50;;
25936;SDS011;13733;51.178;4.450;2024-02-21T12:02:00;12.73;;;5.68;;
25936;SDS011;13733;51.178;4.450;2024-02-21T12:04:28;15.25;;;6.20;;
25936;SDS011;13733;51.178;4.450;2024-02-21T12:06:56;10.05;;;5.93;;
25936;SDS011;13733;51.178;4.450;2024-02-21T12:09:23;15.50;;;6.47;;
25936;SDS011;13733;51.178;4.450;2024-02-21T12:11:57;16.52;;;6.78;;
25936;SDS011;13733;51.178;4.450;2024-02-21T12:14:25;14.38;;;6.97;;
25936;SDS011;13733;51.178;4.450;2024-02-21T12:16:52;16.25;;;7.43;;
25936;SDS011;13733;51.178;4.450;2024-02-21T12:19:18;13.93;;;7.40;;
25936;SDS011;13733;51.178;4.450;2024-02-21T12:21:45;15.30;;;7.22;;
25936;SDS011;13733;51.178;4.450;2024-02-21T12:24:24;16.90;;;7.57;;
25936;SDS011;13733;51.178;4.450;2024-02-21T12:26:52;17.08;;;7.28;;
25936;SDS011;13733;51.178;4.450;2024-02-21T12:29:21;17.05;;;7.15;;
25936;SDS011;13733;51.178;4.450;2024-02-21T12:31:48;17.38;;;7.40;;
25936;SDS011;13733;51.178;4.450;2024-02-21T12:34:15;15.48;;;5.93;;
25936;SDS011;13733;51.178;4.450;2024-02-21T12:36:42;16.00;;;6.25;;
25936;SDS011;13733;51.178;4.450;2024-02-21T12:39:12;16.83;;;5.95;;
25936;SDS011;13733;51.178;4.450;2024-02-21T12:41:38;13.75;;;6.47;;
25936;SDS011;13733;51.178;4.450;2024-02-21T12:44:08;10.40;;;5.35;;
25936;SDS011;13733;51.178;4.450;2024-02-21T12:46:37;11.93;;;6.10;;
25936;SDS011;13733;51.178;4.450;2024-02-21T12:49:04;13.32;;;5.05;;
25936;SDS011;13733;51.178;4.450;2024-02-21T12:51:31;11.32;;;5.30;;
25936;SDS011;13733;51.178;4.450;2024-02-21T12:53:57;10.48;;;5.18;;
25936;SDS011;13733;51.178;4.450;2024-02-21T12:56:23;13.73;;;4.53;;
25936;SDS011;13733;51.178;4.450;2024-02-21T12:58:49;14.00;;;4.63;;
25936;SDS011;13733;51.178;4.450;2024-02-21T13:01:16;13.25;;;4.32;;
25936;SDS011;13733;51.178;4.450;2024-02-21T13:03:42;12.20;;;4.63;;
25936;SDS011;13733;51.178;4.450;2024-02-21T13:06:07;8.35;;;4.55;;
25936;SDS011;13733;51.178;4.450;2024-02-21T13:08:36;10.80;;;4.55;;
25936;SDS011;13733;51.178;4.450;2024-02-21T13:11:02;11.60;;;4.90;;
25936;SDS011;13733;51.178;4.450;2024-02-21T13:13:29;10.82;;;4.40;;
25936;SDS011;13733;51.178;4.450;2024-02-21T13:15:55;10.73;;;4.40;;
25936;SDS011;13733;51.178;4.450;2024-02-21T13:18:21;13.45;;;4.47;;
25936;SDS011;13733;51.178;4.450;2024-02-21T13:20:47;10.27;;;4.40;;
25936;SDS011;13733;51.178;4.450;2024-02-21T13:23:13;10.23;;;4.20;;
25936;SDS011;13733;51.178;4.450;2024-02-21T13:25:40;12.10;;;4.72;;
25936;SDS011;13733;51.178;4.450;2024-02-21T13:28:05;11.20;;;4.50;;
25936;SDS011;13733;51.178;4.450;2024-02-21T13:30:32;12.13;;;4.80;;
25936;SDS011;13733;51.178;4.450;2024-02-21T13:32:58;11.57;;;4.65;;
25936;SDS011;13733;51.178;4.450;2024-02-21T13:35:23;13.50;;;5.00;;
25936;SDS011;13733;51.178;4.450;2024-02-21T13:37:49;15.68;;;4.78;;
25936;SDS011;13733;51.178;4.450;2024-02-21T13:40:15;13.35;;;5.10;;
25936;SDS011;13733;51.178;4.450;2024-02-21T13:42:41;13.30;;;5.57;;
25936;SDS011;13733;51.178;4.450;2024-02-21T13:45:08;12.68;;;5.45;;
25936;SDS011;13733;51.178;4.450;2024-02-21T13:47:34;12.00;;;5.63;;
25936;SDS011;13733;51.178;4.450;2024-02-21T13:50:07;17.45;;;5.85;;
25936;SDS011;13733;51.178;4.450;2024-02-21T13:52:39;15.23;;;6.68;;
25936;SDS011;13733;51.178;4.450;2024-02-21T13:55:07;12.32;;;6.38;;
25936;SDS011;13733;51.178;4.450;2024-02-21T13:57:34;14.23;;;6.05;;
25936;SDS011;13733;51.178;4.450;2024-02-21T14:00:01;11.38;;;6.15;;
25936;SDS011;13733;51.178;4.450;2024-02-21T14:02:37;14.55;;;6.70;;
25936;SDS011;13733;51.178;4.450;2024-02-21T14:05:04;18.50;;;6.55;;
25936;SDS011;13733;51.178;4.450;2024-02-21T14:07:31;13.65;;;6.63;;
25936;SDS011;13733;51.178;4.450;2024-02-21T14:09:58;15.77;;;6.00;;
25936;SDS011;13733;51.178;4.450;2024-02-21T14:12:24;17.52;;;6.93;;
25936;SDS011;13733;51.178;4.450;2024-02-21T14:14:50;15.23;;;6.90;;
25936;SDS011;13733;51.178;4.450;2024-02-21T14:17:17;12.45;;;6.38;;
25936;SDS011;13733;51.178;4.450;2024-02-21T14:19:43;13.68;;;6.60;;
25936;SDS011;13733;51.178;4.450;2024-02-21T14:22:09;12.25;;;6.35;;
25936;SDS011;13733;51.178;4.450;2024-02-21T14:24:36;15.07;;;6.72;;
25936;SDS011;13733;51.178;4.450;2024-02-21T14:27:02;13.27;;;6.07;;
25936;SDS011;13733;51.178;4.450;2024-02-21T14:29:28;14.70;;;6.30;;
25936;SDS011;13733;51.178;4.450;2024-02-21T14:31:54;10.43;;;6.22;;
25936;SDS011;13733;51.178;4.450;2024-02-21T14:34:20;11.73;;;6.00;;
25936;SDS011;13733;51.178;4.450;2024-02-21T14:36:46;13.75;;;6.10;;